OIZH

Details ICAO OIZH (ZAH)
Name ZAHEDAN INTL
Region Iran
Timezone Asia/Tehran (UTC+4.5)
Plans Departing 72
Arriving 47
Stats Elevation 4,564 ft / 1,391 m (AMSL)
Location 29.475684° 60.906190°
Runways 2
Magnetic Variation 2.443° E
Sunrise 2018-05-25 01:00:39 UTC / 2018-05-25 05:30:39 Local
Sunset 2018-05-25 14:48:48 UTC / 2018-05-25 19:18:48 Local
Advertisement - Login to hide

Runways

ID Width Length Bearing (true) Bearing (mag) Surface Threshold Offset Overrun Length
17 148 ft / 45 m 14,040 ft / 4,280 m 172.89° 170.45° Asphalt 0 ft / 0 m 1,034 ft / 315 m
17L 98 ft / 30 m 13,995 ft / 4,266 m 172.89° 170.45° Asphalt 0 ft / 0 m 1,221 ft / 372 m
35 148 ft / 45 m 14,040 ft / 4,280 m 352.89° 350.45° Asphalt 886 ft / 270 m 1,190 ft / 363 m
35R 98 ft / 30 m 13,995 ft / 4,266 m 352.90° 350.46° Asphalt 0 ft / 0 m 1,194 ft / 364 m

Map

Weather


0- 5 10 15 20 25 30 35+ Temperature / ° C

Clouds and Precipitation
Forecast for 2018-05-25 00:00 UTC. Updated 5 hours ago

Ground ~20,000 ft ~40,000 ft Winds

METAR

OIZH 250330Z 02004KT CAVOK 25/M04 Q1017 A3006

TAF

TAF OIZH 241730Z 2418/2524 35005MPS 8000 FEW045 TEMPO 2509/2515 FEW035TCU FEW040 SCT100

Frequencies

Recorded 128.45 MHz ATIS
Tower 119.40 MHz TWR
Tower 121.90 MHz TWR
Tower 118.10 MHz TWR
Warning: Do not use this data for real-world aviation or navigation. No guarantee of current accuracy is given.